Eviapetrol I — SY5401 — position and weather

sailwx.info

Track history (hours):
 
Tides and Currents Weather Stations Pressure Air Temp Water Temp Dewpoint Dewpoint Depression Visibility Wind Speed Wind Dir Waves Ship Positions

Eviapetrol I

Last reported at 2015-May-29 03:28 UTC. Time now 2015-May-29 04:03 UTC.
Position N 38°02' E 023°36'.

Length 75 m; draft 4 m.

Type: Tanker. MMSI: 240285000.

Date/timePositionNaut miles runAvg speedWind from/ knotsBaromVisibWave heightAir tempDewpointWater temp
2015-May-29 03:28N 38°02' E 023°36'0 0.0
2015-May-29 02:22N 38°02' E 023°36'0 0.0
2015-May-29 01:28N 38°02' E 023°36'0 0.0
2015-May-29 00:22N 38°02' E 023°36'0 0.0
2015-May-28 23:31N 38°02' E 023°36'0 0.0
2015-May-28 22:28N 38°02' E 023°36'0 0.0
2015-May-28 21:31N 38°02' E 023°36'3 3.1
2015-May-28 20:34N 38°01' E 023°32'0 0.4
2015-May-28 19:28N 38°01' E 023°32'0 0.1
2015-May-28 18:25N 38°01' E 023°31'0 0.0
2015-May-28 17:31N 38°01' E 023°31'0 0.0
2015-May-28 16:28N 38°01' E 023°31'0 0.0
2015-May-28 15:31N 38°01' E 023°31'0 0.0
2015-May-28 14:31N 38°01' E 023°31'0 0.0
2015-May-28 13:31N 38°01' E 023°32'0 0.0
2015-May-28 12:31N 38°01' E 023°31'0 0.0
2015-May-28 11:22N 38°01' E 023°32'0 0.0
2015-May-28 10:31N 38°01' E 023°31'0 0.0
2015-May-28 09:31N 38°01' E 023°31'0 0.1
2015-May-28 08:31N 38°01' E 023°32'0 0.0
2015-May-28 07:31N 38°01' E 023°32'0 0.1
2015-May-28 06:31N 38°01' E 023°31'0 0.0
2015-May-28 05:31N 38°01' E 023°31'0 0.0
2015-May-28 04:31N 38°01' E 023°31'0 0.0
2015-May-28 03:31N 38°01' E 023°31'0 0.0
2015-May-28 02:31N 38°01' E 023°31'0 0.0
2015-May-28 01:31N 38°01' E 023°31'0 0.0
2015-May-28 00:31N 38°01' E 023°31'0 0.0
2015-May-27 23:28N 38°01' E 023°31'0 0.0
2015-May-27 22:31N 38°01' E 023°31'0 0.0
2015-May-27 21:25N 38°01' E 023°31'0 0.0
2015-May-27 20:25N 38°01' E 023°31'3 3.2
2015-May-27 19:22N 38°01' E 023°36'0 0.0
2015-May-27 18:28N 38°01' E 023°36'0 0.0
2015-May-27 17:28N 38°01' E 023°36'0 0.0
2015-May-27 16:31N 38°01' E 023°36'0 0.0
2015-May-27 15:28N 38°01' E 023°36'0 0.0
2015-May-27 14:28N 38°01' E 023°36'0 0.0
2015-May-27 13:32N 38°01' E 023°36'1 1.0
2015-May-27 12:32N 38°01' E 023°35'7 6.8
2015-May-27 11:33N 37°60' E 023°26'8 7.8
2015-May-27 10:29N 37°56' E 023°17'9 9.5
2015-May-27 09:32N 37°54' E 023°06'154 7.7
2015-May-26 13:31N 39°14' E 020°17'1010.5
2015-May-26 12:33N 39°23' E 020°11'1010.4
2015-May-26 11:34N 39°31' E 020°03'12 4.0
2015-May-26 08:26N 39°39' E 019°51'0 0.0
2015-May-26 07:33N 39°39' E 019°51'0 0.0
2015-May-26 06:33N 39°39' E 019°51'0 0.0
2015-May-26 05:33N 39°39' E 019°51'1 1.1
2015-May-26 04:33N 39°39' E 019°52'0 0.0
2015-May-26 03:30N 39°39' E 019°52'0 0.0
2015-May-26 02:33N 39°39' E 019°52'0 0.1
2015-May-26 01:33N 39°39' E 019°52'0 0.0
2015-May-26 00:33N 39°39' E 019°52'0 0.0
2015-May-25 23:33N 39°39' E 019°52'0 0.0
2015-May-25 22:33N 39°39' E 019°52'0 0.0
2015-May-25 21:33N 39°39' E 019°52'0 0.0
2015-May-25 20:33N 39°39' E 019°52'0 0.0
2015-May-25 19:33N 39°39' E 019°52'0 0.0
2015-May-25 18:33N 39°39' E 019°52'0 0.0
2015-May-25 17:33N 39°39' E 019°52'0 0.0
2015-May-25 16:33N 39°39' E 019°52'0 0.0
2015-May-25 15:33N 39°39' E 019°52'0 0.0
2015-May-25 14:33N 39°39' E 019°52'1 0.9
2015-May-25 13:34N 39°38' E 019°53'0 0.1
2015-May-25 12:32N 39°38' E 019°53'0 0.0
2015-May-25 11:32N 39°38' E 019°53'0 0.0
2015-May-25 10:32N 39°38' E 019°53'0 0.0
2015-May-25 09:32N 39°38' E 019°53'0 0.0
2015-May-25 08:32N 39°38' E 019°53'0 0.0
2015-May-25 07:32N 39°38' E 019°53'0 0.0
2015-May-25 06:32N 39°38' E 019°53'0 0.0
2015-May-25 05:32N 39°38' E 019°53'0 0.0
2015-May-25 04:33N 39°38' E 019°53'4 3.8
2015-May-25 03:33N 39°38' E 019°58'9 8.6
2015-May-25 02:33N 39°31' E 020°04'8 8.3
2015-May-25 01:33N 39°24' E 020°10'164 6.8
2015-May-24 01:34N 37°54' E 023°05'9 9.1
2015-May-24 00:33N 37°56' E 023°16'8 7.5
2015-May-23 23:33N 37°59' E 023°25'9 8.5
2015-May-23 22:32N 38°02' E 023°35'0 0.2
2015-May-23 21:30N 38°02' E 023°36'0 0.0
2015-May-23 20:33N 38°02' E 023°36'0 0.0
2015-May-23 19:33N 38°02' E 023°36'0 0.0
2015-May-23 18:33N 38°02' E 023°36'0 0.0
2015-May-23 17:31N 38°02' E 023°36'0 0.5
2015-May-23 16:32N 38°01' E 023°36'0 0.0
2015-May-23 15:32N 38°01' E 023°36'0 0.0
2015-May-23 14:32N 38°01' E 023°36'0 0.0
2015-May-23 13:32N 38°01' E 023°36'0 0.0
2015-May-23 12:29N 38°01' E 023°36'0 0.0
2015-May-23 11:29N 38°01' E 023°36'0 0.0
2015-May-23 10:26N 38°01' E 023°36'0 0.0
2015-May-23 09:32N 38°01' E 023°36'0 0.0
2015-May-23 08:32N 38°01' E 023°36'0 0.0
2015-May-23 07:34N 38°01' E 023°36'4 4.3
2015-May-23 06:33N 37°58' E 023°33'9 9.2
2015-May-23 05:33N 37°50' E 023°40'10 9.6
2015-May-23 04:34N 37°42' E 023°45'13 9.8
2015-May-23 03:13N 37°38' E 024°01'158 9.4
2015-May-22 10:21N 40°08' E 025°07'8 9.9
2015-May-22 09:33N 40°15' E 025°12'9 9.3
2015-May-22 08:34N 40°22' E 025°19'11 9.4
2015-May-22 07:20N 40°32' E 025°28'810.0
2015-May-22 06:34N 40°37' E 025°35'10 9.8
2015-May-22 05:34N 40°44' E 025°45'10 1.3
2015-May-21 21:27N 40°50' E 025°55'0 0.0
2015-May-21 17:05N 40°50' E 025°55'0 0.0
2015-May-21 16:32N 40°50' E 025°55'0 0.0
2015-May-21 15:33N 40°50' E 025°55'0 0.0
2015-May-21 04:26N 40°50' E 025°55'46 4.2
2015-May-20 17:33N 40°16' E 025°14'10 9.2
2015-May-20 16:29N 40°08' E 025°08'10 9.9
2015-May-20 15:26N 39°59' E 025°00'148 8.8
2015-May-19 22:33N 37°37' E 024°06'10 9.5
2015-May-19 21:33N 37°38' E 023°54'9 9.2
2015-May-19 20:33N 37°40' E 023°42'9 9.2
2015-May-19 19:33N 37°48' E 023°38'9 8.6
2015-May-19 18:33N 37°57' E 023°35'5 4.7
2015-May-19 17:30N 38°02' E 023°36'0 0.0
2015-May-19 16:33N 38°02' E 023°36'0 0.0
2015-May-19 15:31N 38°02' E 023°36'0 0.0
2015-May-19 14:15N 38°02' E 023°36'0 0.0
2015-May-19 13:33N 38°02' E 023°36'0 0.0
2015-May-19 12:18N 38°02' E 023°36'0 0.0
2015-May-19 08:28N 38°02' E 023°36'3 3.0
2015-May-19 07:33N 38°00' E 023°33'8 7.7
2015-May-19 06:33N 37°54' E 023°38'10 9.9
2015-May-19 05:33N 37°45' E 023°43'1010.2
2015-May-19 04:33N 37°35' E 023°46'  
Track history (hours):
 
Tides and Currents Weather Stations Pressure Air Temp Water Temp Dewpoint Dewpoint Depression Visibility Wind Speed Wind Dir Waves Ship Positions

Eviapetrol I

Last reported at 2015-May-29 03:28 UTC. Time now 2015-May-29 04:03 UTC.
Position N 38°02' E 023°36'.

Length 75 m; draft 4 m.

Type: Tanker. MMSI: 240285000.

Date/timePositionNaut miles runAvg speedWind from/ knotsBaromVisibWave heightAir tempDewpointWater temp
2015-May-29 03:28N 38°02' E 023°36'0 0.0
2015-May-29 02:22N 38°02' E 023°36'0 0.0
2015-May-29 01:28N 38°02' E 023°36'0 0.0
2015-May-29 00:22N 38°02' E 023°36'0 0.0
2015-May-28 23:31N 38°02' E 023°36'0 0.0
2015-May-28 22:28N 38°02' E 023°36'0 0.0
2015-May-28 21:31N 38°02' E 023°36'3 3.1
2015-May-28 20:34N 38°01' E 023°32'0 0.4
2015-May-28 19:28N 38°01' E 023°32'0 0.1
2015-May-28 18:25N 38°01' E 023°31'0 0.0
2015-May-28 17:31N 38°01' E 023°31'0 0.0
2015-May-28 16:28N 38°01' E 023°31'0 0.0
2015-May-28 15:31N 38°01' E 023°31'0 0.0
2015-May-28 14:31N 38°01' E 023°31'0 0.0
2015-May-28 13:31N 38°01' E 023°32'0 0.0
2015-May-28 12:31N 38°01' E 023°31'0 0.0
2015-May-28 11:22N 38°01' E 023°32'0 0.0
2015-May-28 10:31N 38°01' E 023°31'0 0.0
2015-May-28 09:31N 38°01' E 023°31'0 0.1
2015-May-28 08:31N 38°01' E 023°32'0 0.0
2015-May-28 07:31N 38°01' E 023°32'0 0.1
2015-May-28 06:31N 38°01' E 023°31'0 0.0
2015-May-28 05:31N 38°01' E 023°31'0 0.0
2015-May-28 04:31N 38°01' E 023°31'0 0.0
2015-May-28 03:31N 38°01' E 023°31'0 0.0
2015-May-28 02:31N 38°01' E 023°31'0 0.0
2015-May-28 01:31N 38°01' E 023°31'0 0.0
2015-May-28 00:31N 38°01' E 023°31'0 0.0
2015-May-27 23:28N 38°01' E 023°31'0 0.0
2015-May-27 22:31N 38°01' E 023°31'0 0.0
2015-May-27 21:25N 38°01' E 023°31'0 0.0
2015-May-27 20:25N 38°01' E 023°31'3 3.2
2015-May-27 19:22N 38°01' E 023°36'0 0.0
2015-May-27 18:28N 38°01' E 023°36'0 0.0
2015-May-27 17:28N 38°01' E 023°36'0 0.0
2015-May-27 16:31N 38°01' E 023°36'0 0.0
2015-May-27 15:28N 38°01' E 023°36'0 0.0
2015-May-27 14:28N 38°01' E 023°36'0 0.0
2015-May-27 13:32N 38°01' E 023°36'1 1.0
2015-May-27 12:32N 38°01' E 023°35'7 6.8
2015-May-27 11:33N 37°60' E 023°26'8 7.8
2015-May-27 10:29N 37°56' E 023°17'9 9.5
2015-May-27 09:32N 37°54' E 023°06'154 7.7
2015-May-26 13:31N 39°14' E 020°17'1010.5
2015-May-26 12:33N 39°23' E 020°11'1010.4
2015-May-26 11:34N 39°31' E 020°03'12 4.0
2015-May-26 08:26N 39°39' E 019°51'0 0.0
2015-May-26 07:33N 39°39' E 019°51'0 0.0
2015-May-26 06:33N 39°39' E 019°51'0 0.0
2015-May-26 05:33N 39°39' E 019°51'1 1.1
2015-May-26 04:33N 39°39' E 019°52'0 0.0
2015-May-26 03:30N 39°39' E 019°52'0 0.0
2015-May-26 02:33N 39°39' E 019°52'0 0.1
2015-May-26 01:33N 39°39' E 019°52'0 0.0
2015-May-26 00:33N 39°39' E 019°52'0 0.0
2015-May-25 23:33N 39°39' E 019°52'0 0.0
2015-May-25 22:33N 39°39' E 019°52'0 0.0
2015-May-25 21:33N 39°39' E 019°52'0 0.0
2015-May-25 20:33N 39°39' E 019°52'0 0.0
2015-May-25 19:33N 39°39' E 019°52'0 0.0
2015-May-25 18:33N 39°39' E 019°52'0 0.0
2015-May-25 17:33N 39°39' E 019°52'0 0.0
2015-May-25 16:33N 39°39' E 019°52'0 0.0
2015-May-25 15:33N 39°39' E 019°52'0 0.0
2015-May-25 14:33N 39°39' E 019°52'1 0.9
2015-May-25 13:34N 39°38' E 019°53'0 0.1
2015-May-25 12:32N 39°38' E 019°53'0 0.0
2015-May-25 11:32N 39°38' E 019°53'0 0.0
2015-May-25 10:32N 39°38' E 019°53'0 0.0
2015-May-25 09:32N 39°38' E 019°53'0 0.0
2015-May-25 08:32N 39°38' E 019°53'0 0.0
2015-May-25 07:32N 39°38' E 019°53'0 0.0
2015-May-25 06:32N 39°38' E 019°53'0 0.0
2015-May-25 05:32N 39°38' E 019°53'0 0.0
2015-May-25 04:33N 39°38' E 019°53'4 3.8
2015-May-25 03:33N 39°38' E 019°58'9 8.6
2015-May-25 02:33N 39°31' E 020°04'8 8.3
2015-May-25 01:33N 39°24' E 020°10'164 6.8
2015-May-24 01:34N 37°54' E 023°05'9 9.1
2015-May-24 00:33N 37°56' E 023°16'8 7.5
2015-May-23 23:33N 37°59' E 023°25'9 8.5
2015-May-23 22:32N 38°02' E 023°35'0 0.2
2015-May-23 21:30N 38°02' E 023°36'0 0.0
2015-May-23 20:33N 38°02' E 023°36'0 0.0
2015-May-23 19:33N 38°02' E 023°36'0 0.0
2015-May-23 18:33N 38°02' E 023°36'0 0.0
2015-May-23 17:31N 38°02' E 023°36'0 0.5
2015-May-23 16:32N 38°01' E 023°36'0 0.0
2015-May-23 15:32N 38°01' E 023°36'0 0.0
2015-May-23 14:32N 38°01' E 023°36'0 0.0
2015-May-23 13:32N 38°01' E 023°36'0 0.0
2015-May-23 12:29N 38°01' E 023°36'0 0.0
2015-May-23 11:29N 38°01' E 023°36'0 0.0
2015-May-23 10:26N 38°01' E 023°36'0 0.0
2015-May-23 09:32N 38°01' E 023°36'0 0.0
2015-May-23 08:32N 38°01' E 023°36'0 0.0
2015-May-23 07:34N 38°01' E 023°36'4 4.3
2015-May-23 06:33N 37°58' E 023°33'9 9.2
2015-May-23 05:33N 37°50' E 023°40'10 9.6
2015-May-23 04:34N 37°42' E 023°45'13 9.8
2015-May-23 03:13N 37°38' E 024°01'158 9.4
2015-May-22 10:21N 40°08' E 025°07'8 9.9
2015-May-22 09:33N 40°15' E 025°12'9 9.3
2015-May-22 08:34N 40°22' E 025°19'11 9.4
2015-May-22 07:20N 40°32' E 025°28'810.0
2015-May-22 06:34N 40°37' E 025°35'10 9.8
2015-May-22 05:34N 40°44' E 025°45'10 1.3
2015-May-21 21:27N 40°50' E 025°55'0 0.0
2015-May-21 17:05N 40°50' E 025°55'0 0.0
2015-May-21 16:32N 40°50' E 025°55'0 0.0
2015-May-21 15:33N 40°50' E 025°55'0 0.0
2015-May-21 04:26N 40°50' E 025°55'46 4.2
2015-May-20 17:33N 40°16' E 025°14'10 9.2
2015-May-20 16:29N 40°08' E 025°08'10 9.9
2015-May-20 15:26N 39°59' E 025°00'148 8.8
2015-May-19 22:33N 37°37' E 024°06'10 9.5
2015-May-19 21:33N 37°38' E 023°54'9 9.2
2015-May-19 20:33N 37°40' E 023°42'9 9.2
2015-May-19 19:33N 37°48' E 023°38'9 8.6
2015-May-19 18:33N 37°57' E 023°35'5 4.7
2015-May-19 17:30N 38°02' E 023°36'0 0.0
2015-May-19 16:33N 38°02' E 023°36'0 0.0
2015-May-19 15:31N 38°02' E 023°36'0 0.0
2015-May-19 14:15N 38°02' E 023°36'0 0.0
2015-May-19 13:33N 38°02' E 023°36'0 0.0
2015-May-19 12:18N 38°02' E 023°36'0 0.0
2015-May-19 08:28N 38°02' E 023°36'3 3.0
2015-May-19 07:33N 38°00' E 023°33'8 7.7
2015-May-19 06:33N 37°54' E 023°38'10 9.9
2015-May-19 05:33N 37°45' E 023°43'1010.2
2015-May-19 04:33N 37°35' E 023°46'  

Dump ship's entire track history